sensor_id;sensor_type;location;lat;lon;timestamp;temperature;humidity
4052;DHT22;2040;50.924;11.604;2023-08-30T00:00:11;12.90;99.90
4052;DHT22;2040;50.924;11.604;2023-08-30T00:02:37;12.80;99.90
4052;DHT22;2040;50.924;11.604;2023-08-30T00:05:04;12.80;99.90
4052;DHT22;2040;50.924;11.604;2023-08-30T00:07:30;12.80;99.90
4052;DHT22;2040;50.924;11.604;2023-08-30T00:09:59;12.60;99.90
4052;DHT22;2040;50.924;11.604;2023-08-30T00:12:25;12.50;99.90
4052;DHT22;2040;50.924;11.604;2023-08-30T00:14:51;12.50;99.90
4052;DHT22;2040;50.924;11.604;2023-08-30T00:17:16;12.50;99.90
4052;DHT22;2040;50.924;11.604;2023-08-30T00:19:42;12.50;99.90
4052;DHT22;2040;50.924;11.604;2023-08-30T00:22:08;12.40;99.90
4052;DHT22;2040;50.924;11.604;2023-08-30T00:24:34;12.30;99.90
4052;DHT22;2040;50.924;11.604;2023-08-30T00:27:01;12.30;99.90
4052;DHT22;2040;50.924;11.604;2023-08-30T00:29:28;12.30;99.90
4052;DHT22;2040;50.924;11.604;2023-08-30T00:31:54;12.50;99.90
4052;DHT22;2040;50.924;11.604;2023-08-30T00:34:19;12.80;99.90
4052;DHT22;2040;50.924;11.604;2023-08-30T00:36:45;13.00;99.90
4052;DHT22;2040;50.924;11.604;2023-08-30T00:39:10;12.80;99.90
4052;DHT22;2040;50.924;11.604;2023-08-30T00:41:36;12.60;99.90
4052;DHT22;2040;50.924;11.604;2023-08-30T00:44:01;12.50;99.90
4052;DHT22;2040;50.924;11.604;2023-08-30T00:46:27;12.40;99.90
4052;DHT22;2040;50.924;11.604;2023-08-30T00:48:53;12.30;99.90
4052;DHT22;2040;50.924;11.604;2023-08-30T00:51:19;12.20;99.90
4052;DHT22;2040;50.924;11.604;2023-08-30T00:53:45;12.10;99.90
4052;DHT22;2040;50.924;11.604;2023-08-30T00:56:11;12.10;99.90
4052;DHT22;2040;50.924;11.604;2023-08-30T00:58:37;12.10;99.90
4052;DHT22;2040;50.924;11.604;2023-08-30T01:01:04;12.20;99.90
4052;DHT22;2040;50.924;11.604;2023-08-30T01:03:34;12.10;99.90
4052;DHT22;2040;50.924;11.604;2023-08-30T01:05:59;12.10;99.90
4052;DHT22;2040;50.924;11.604;2023-08-30T01:08:25;12.00;99.90
4052;DHT22;2040;50.924;11.604;2023-08-30T01:11:02;12.00;99.90
4052;DHT22;2040;50.924;11.604;2023-08-30T01:13:30;11.90;99.90
4052;DHT22;2040;50.924;11.604;2023-08-30T01:15:58;12.00;99.90
4052;DHT22;2040;50.924;11.604;2023-08-30T01:18:26;12.00;99.90
4052;DHT22;2040;50.924;11.604;2023-08-30T01:20:53;12.00;99.90
4052;DHT22;2040;50.924;11.604;2023-08-30T01:23:31;12.00;99.90
4052;DHT22;2040;50.924;11.604;2023-08-30T01:26:24;12.20;99.90
4052;DHT22;2040;50.924;11.604;2023-08-30T01:28:52;12.40;99.90
4052;DHT22;2040;50.924;11.604;2023-08-30T01:31:19;12.40;99.90
4052;DHT22;2040;50.924;11.604;2023-08-30T01:33:46;12.30;99.90
4052;DHT22;2040;50.924;11.604;2023-08-30T01:36:12;12.30;99.90
4052;DHT22;2040;50.924;11.604;2023-08-30T01:38:38;12.10;99.90
4052;DHT22;2040;50.924;11.604;2023-08-30T01:41:04;11.90;99.90
4052;DHT22;2040;50.924;11.604;2023-08-30T01:43:31;11.80;99.90
4052;DHT22;2040;50.924;11.604;2023-08-30T01:45:58;11.70;99.90
4052;DHT22;2040;50.924;11.604;2023-08-30T01:48:26;11.70;99.90
4052;DHT22;2040;50.924;11.604;2023-08-30T01:50:52;11.70;99.90
4052;DHT22;2040;50.924;11.604;2023-08-30T01:53:21;11.70;99.90
4052;DHT22;2040;50.924;11.604;2023-08-30T01:55:47;11.80;99.90
4052;DHT22;2040;50.924;11.604;2023-08-30T01:58:12;12.00;99.90
4052;DHT22;2040;50.924;11.604;2023-08-30T02:00:38;12.00;99.90
4052;DHT22;2040;50.924;11.604;2023-08-30T02:03:10;11.80;99.90
4052;DHT22;2040;50.924;11.604;2023-08-30T02:05:39;11.80;99.90
4052;DHT22;2040;50.924;11.604;2023-08-30T02:08:35;11.70;99.90
4052;DHT22;2040;50.924;11.604;2023-08-30T02:11:11;11.60;99.90
4052;DHT22;2040;50.924;11.604;2023-08-30T02:13:39;11.50;99.90
4052;DHT22;2040;50.924;11.604;2023-08-30T02:16:08;11.40;99.90
4052;DHT22;2040;50.924;11.604;2023-08-30T02:18:35;11.50;99.90
4052;DHT22;2040;50.924;11.604;2023-08-30T02:21:01;11.60;99.90
4052;DHT22;2040;50.924;11.604;2023-08-30T02:23:27;11.70;99.90
4052;DHT22;2040;50.924;11.604;2023-08-30T02:25:54;11.60;99.90
4052;DHT22;2040;50.924;11.604;2023-08-30T02:28:21;11.60;99.90
4052;DHT22;2040;50.924;11.604;2023-08-30T02:30:47;11.60;99.90
4052;DHT22;2040;50.924;11.604;2023-08-30T02:33:13;11.50;99.90
4052;DHT22;2040;50.924;11.604;2023-08-30T02:35:39;11.80;99.90
4052;DHT22;2040;50.924;11.604;2023-08-30T02:38:05;11.60;99.90
4052;DHT22;2040;50.924;11.604;2023-08-30T02:40:31;11.50;99.90
4052;DHT22;2040;50.924;11.604;2023-08-30T02:42:57;11.40;99.90
4052;DHT22;2040;50.924;11.604;2023-08-30T02:45:23;11.30;99.90
4052;DHT22;2040;50.924;11.604;2023-08-30T02:47:48;11.30;99.90
4052;DHT22;2040;50.924;11.604;2023-08-30T02:50:14;11.20;99.90
4052;DHT22;2040;50.924;11.604;2023-08-30T02:52:40;11.20;99.90
4052;DHT22;2040;50.924;11.604;2023-08-30T02:55:06;11.10;99.90
4052;DHT22;2040;50.924;11.604;2023-08-30T02:57:31;11.00;99.90
4052;DHT22;2040;50.924;11.604;2023-08-30T02:59:57;11.10;99.90
4052;DHT22;2040;50.924;11.604;2023-08-30T03:02:22;11.10;99.90
4052;DHT22;2040;50.924;11.604;2023-08-30T03:04:48;11.00;99.90
4052;DHT22;2040;50.924;11.604;2023-08-30T03:07:14;11.00;99.90
4052;DHT22;2040;50.924;11.604;2023-08-30T03:09:39;11.00;99.90
4052;DHT22;2040;50.924;11.604;2023-08-30T03:12:06;11.10;99.90
4052;DHT22;2040;50.924;11.604;2023-08-30T03:14:32;11.10;99.90
4052;DHT22;2040;50.924;11.604;2023-08-30T03:16:57;11.10;99.90
4052;DHT22;2040;50.924;11.604;2023-08-30T03:19:23;11.10;99.90
4052;DHT22;2040;50.924;11.604;2023-08-30T03:21:48;11.20;99.90
4052;DHT22;2040;50.924;11.604;2023-08-30T03:24:14;11.20;99.90
4052;DHT22;2040;50.924;11.604;2023-08-30T03:26:43;11.00;99.90
4052;DHT22;2040;50.924;11.604;2023-08-30T03:29:08;11.10;99.90
4052;DHT22;2040;50.924;11.604;2023-08-30T03:31:35;11.10;99.90
4052;DHT22;2040;50.924;11.604;2023-08-30T03:34:00;11.00;99.90
4052;DHT22;2040;50.924;11.604;2023-08-30T03:36:26;10.90;99.90
4052;DHT22;2040;50.924;11.604;2023-08-30T03:38:51;10.90;99.90
4052;DHT22;2040;50.924;11.604;2023-08-30T03:41:18;10.90;99.90
4052;DHT22;2040;50.924;11.604;2023-08-30T03:43:43;11.10;99.90
4052;DHT22;2040;50.924;11.604;2023-08-30T03:46:09;11.00;99.90
4052;DHT22;2040;50.924;11.604;2023-08-30T03:48:37;11.10;99.90
4052;DHT22;2040;50.924;11.604;2023-08-30T03:51:03;11.20;99.90
4052;DHT22;2040;50.924;11.604;2023-08-30T03:53:28;11.00;99.90
4052;DHT22;2040;50.924;11.604;2023-08-30T03:55:55;10.90;99.90
4052;DHT22;2040;50.924;11.604;2023-08-30T03:58:21;11.10;99.90
4052;DHT22;2040;50.924;11.604;2023-08-30T04:00:47;11.20;99.90
4052;DHT22;2040;50.924;11.604;2023-08-30T04:03:13;11.20;99.90
4052;DHT22;2040;50.924;11.604;2023-08-30T04:05:39;11.20;99.90
4052;DHT22;2040;50.924;11.604;2023-08-30T04:08:06;11.10;99.90
4052;DHT22;2040;50.924;11.604;2023-08-30T04:10:39;11.20;99.90
4052;DHT22;2040;50.924;11.604;2023-08-30T04:13:05;11.10;99.90
4052;DHT22;2040;50.924;11.604;2023-08-30T04:15:35;11.10;99.90
4052;DHT22;2040;50.924;11.604;2023-08-30T04:18:02;10.90;99.90
4052;DHT22;2040;50.924;11.604;2023-08-30T04:20:28;10.90;99.90
4052;DHT22;2040;50.924;11.604;2023-08-30T04:22:53;10.90;99.90
4052;DHT22;2040;50.924;11.604;2023-08-30T04:25:20;10.80;99.90
4052;DHT22;2040;50.924;11.604;2023-08-30T04:27:46;10.80;99.90
4052;DHT22;2040;50.924;11.604;2023-08-30T04:30:12;10.70;99.90
4052;DHT22;2040;50.924;11.604;2023-08-30T04:32:38;10.70;99.90
4052;DHT22;2040;50.924;11.604;2023-08-30T04:35:03;10.70;99.90
4052;DHT22;2040;50.924;11.604;2023-08-30T04:37:32;10.70;99.90
4052;DHT22;2040;50.924;11.604;2023-08-30T04:39:58;10.80;99.90
4052;DHT22;2040;50.924;11.604;2023-08-30T04:42:23;10.70;99.90
4052;DHT22;2040;50.924;11.604;2023-08-30T04:44:50;10.70;99.90
4052;DHT22;2040;50.924;11.604;2023-08-30T04:47:16;10.70;99.90
4052;DHT22;2040;50.924;11.604;2023-08-30T04:49:42;10.90;99.90
4052;DHT22;2040;50.924;11.604;2023-08-30T04:52:08;10.90;99.90
4052;DHT22;2040;50.924;11.604;2023-08-30T04:54:33;10.90;99.90
4052;DHT22;2040;50.924;11.604;2023-08-30T04:56:59;10.80;99.90
4052;DHT22;2040;50.924;11.604;2023-08-30T04:59:24;10.70;99.90
4052;DHT22;2040;50.924;11.604;2023-08-30T05:01:50;10.70;99.90
4052;DHT22;2040;50.924;11.604;2023-08-30T05:04:17;10.80;99.90
4052;DHT22;2040;50.924;11.604;2023-08-30T05:06:43;10.80;99.90
4052;DHT22;2040;50.924;11.604;2023-08-30T05:09:09;10.80;99.90
4052;DHT22;2040;50.924;11.604;2023-08-30T05:11:34;10.80;99.90
4052;DHT22;2040;50.924;11.604;2023-08-30T05:14:00;10.90;99.90
4052;DHT22;2040;50.924;11.604;2023-08-30T05:16:25;10.90;99.90
4052;DHT22;2040;50.924;11.604;2023-08-30T05:18:51;10.90;99.90
4052;DHT22;2040;50.924;11.604;2023-08-30T05:21:17;10.90;99.90
4052;DHT22;2040;50.924;11.604;2023-08-30T05:23:43;11.00;99.90
4052;DHT22;2040;50.924;11.604;2023-08-30T05:26:10;11.10;99.90
4052;DHT22;2040;50.924;11.604;2023-08-30T05:28:38;11.10;99.90
4052;DHT22;2040;50.924;11.604;2023-08-30T05:31:04;11.10;99.90
4052;DHT22;2040;50.924;11.604;2023-08-30T05:33:29;11.20;99.90
4052;DHT22;2040;50.924;11.604;2023-08-30T05:35:55;11.30;99.90
4052;DHT22;2040;50.924;11.604;2023-08-30T05:38:21;11.40;99.90
4052;DHT22;2040;50.924;11.604;2023-08-30T05:40:47;11.50;99.90
4052;DHT22;2040;50.924;11.604;2023-08-30T05:43:12;11.50;99.90
4052;DHT22;2040;50.924;11.604;2023-08-30T05:45:38;11.60;99.90
4052;DHT22;2040;50.924;11.604;2023-08-30T05:48:04;11.60;99.90
4052;DHT22;2040;50.924;11.604;2023-08-30T05:50:30;11.50;99.90
4052;DHT22;2040;50.924;11.604;2023-08-30T05:52:56;11.60;99.90
4052;DHT22;2040;50.924;11.604;2023-08-30T05:55:21;11.70;99.90
4052;DHT22;2040;50.924;11.604;2023-08-30T05:57:47;11.90;99.90
4052;DHT22;2040;50.924;11.604;2023-08-30T06:00:13;11.90;99.90
4052;DHT22;2040;50.924;11.604;2023-08-30T06:02:39;11.80;99.90
4052;DHT22;2040;50.924;11.604;2023-08-30T06:05:05;11.80;99.90
4052;DHT22;2040;50.924;11.604;2023-08-30T06:07:31;11.80;99.90
4052;DHT22;2040;50.924;11.604;2023-08-30T06:09:57;11.90;99.90
4052;DHT22;2040;50.924;11.604;2023-08-30T06:12:22;11.90;99.90
4052;DHT22;2040;50.924;11.604;2023-08-30T06:14:48;12.10;99.90
4052;DHT22;2040;50.924;11.604;2023-08-30T06:17:18;12.10;99.90
4052;DHT22;2040;50.924;11.604;2023-08-30T06:19:44;12.20;99.90
4052;DHT22;2040;50.924;11.604;2023-08-30T06:22:10;12.20;99.90
4052;DHT22;2040;50.924;11.604;2023-08-30T06:24:36;12.30;99.90
4052;DHT22;2040;50.924;11.604;2023-08-30T06:27:02;12.30;99.90
4052;DHT22;2040;50.924;11.604;2023-08-30T06:29:27;12.30;99.90
4052;DHT22;2040;50.924;11.604;2023-08-30T06:31:53;12.40;99.90
4052;DHT22;2040;50.924;11.604;2023-08-30T06:34:18;12.40;99.90
4052;DHT22;2040;50.924;11.604;2023-08-30T06:36:44;12.40;99.90
4052;DHT22;2040;50.924;11.604;2023-08-30T06:39:10;12.40;99.90
4052;DHT22;2040;50.924;11.604;2023-08-30T06:41:35;12.40;99.90
4052;DHT22;2040;50.924;11.604;2023-08-30T06:44:01;12.50;99.90
4052;DHT22;2040;50.924;11.604;2023-08-30T06:46:26;12.50;99.90
4052;DHT22;2040;50.924;11.604;2023-08-30T06:48:52;12.50;99.90
4052;DHT22;2040;50.924;11.604;2023-08-30T06:51:17;12.50;99.90
4052;DHT22;2040;50.924;11.604;2023-08-30T06:53:43;12.60;99.90
4052;DHT22;2040;50.924;11.604;2023-08-30T06:56:09;12.60;99.90
4052;DHT22;2040;50.924;11.604;2023-08-30T06:58:34;12.70;99.90
4052;DHT22;2040;50.924;11.604;2023-08-30T07:01:00;12.90;99.90
4052;DHT22;2040;50.924;11.604;2023-08-30T07:03:25;13.20;99.90
4052;DHT22;2040;50.924;11.604;2023-08-30T07:05:51;13.30;99.90
4052;DHT22;2040;50.924;11.604;2023-08-30T07:08:17;13.50;99.90
4052;DHT22;2040;50.924;11.604;2023-08-30T07:10:43;13.70;99.90
4052;DHT22;2040;50.924;11.604;2023-08-30T07:13:08;13.80;99.90
4052;DHT22;2040;50.924;11.604;2023-08-30T07:15:41;14.00;99.90
4052;DHT22;2040;50.924;11.604;2023-08-30T07:18:08;14.10;99.90
4052;DHT22;2040;50.924;11.604;2023-08-30T07:20:34;14.20;99.90
4052;DHT22;2040;50.924;11.604;2023-08-30T07:23:02;14.30;99.90
4052;DHT22;2040;50.924;11.604;2023-08-30T07:25:28;14.40;99.90
4052;DHT22;2040;50.924;11.604;2023-08-30T07:27:54;14.40;99.90
4052;DHT22;2040;50.924;11.604;2023-08-30T07:30:20;14.40;99.90
4052;DHT22;2040;50.924;11.604;2023-08-30T07:32:45;14.50;99.90
4052;DHT22;2040;50.924;11.604;2023-08-30T07:35:11;14.50;99.90
4052;DHT22;2040;50.924;11.604;2023-08-30T07:37:37;14.70;99.90
4052;DHT22;2040;50.924;11.604;2023-08-30T07:40:02;14.80;99.90
4052;DHT22;2040;50.924;11.604;2023-08-30T07:42:30;14.80;99.90
4052;DHT22;2040;50.924;11.604;2023-08-30T07:44:55;14.90;99.90
4052;DHT22;2040;50.924;11.604;2023-08-30T07:47:21;15.00;99.90
4052;DHT22;2040;50.924;11.604;2023-08-30T07:49:46;15.00;99.90
4052;DHT22;2040;50.924;11.604;2023-08-30T07:52:12;15.10;99.90
4052;DHT22;2040;50.924;11.604;2023-08-30T07:54:39;15.20;99.90
4052;DHT22;2040;50.924;11.604;2023-08-30T07:57:05;15.30;99.90
4052;DHT22;2040;50.924;11.604;2023-08-30T07:59:33;15.50;99.90
4052;DHT22;2040;50.924;11.604;2023-08-30T08:01:59;15.60;99.90
4052;DHT22;2040;50.924;11.604;2023-08-30T08:04:25;15.60;99.90
4052;DHT22;2040;50.924;11.604;2023-08-30T08:06:51;15.70;99.90
4052;DHT22;2040;50.924;11.604;2023-08-30T08:09:17;15.80;99.90
4052;DHT22;2040;50.924;11.604;2023-08-30T08:11:43;16.10;99.90
4052;DHT22;2040;50.924;11.604;2023-08-30T08:14:12;16.30;99.90
4052;DHT22;2040;50.924;11.604;2023-08-30T08:16:38;16.30;99.90
4052;DHT22;2040;50.924;11.604;2023-08-30T08:19:03;16.50;99.90
4052;DHT22;2040;50.924;11.604;2023-08-30T08:21:29;16.70;99.90
4052;DHT22;2040;50.924;11.604;2023-08-30T08:23:55;16.90;99.90
4052;DHT22;2040;50.924;11.604;2023-08-30T08:26:20;17.10;99.90
4052;DHT22;2040;50.924;11.604;2023-08-30T08:28:46;17.30;99.90
4052;DHT22;2040;50.924;11.604;2023-08-30T08:31:11;17.40;99.90
4052;DHT22;2040;50.924;11.604;2023-08-30T08:33:37;17.50;99.90
4052;DHT22;2040;50.924;11.604;2023-08-30T08:36:03;17.70;99.90
4052;DHT22;2040;50.924;11.604;2023-08-30T08:38:28;17.70;99.90
4052;DHT22;2040;50.924;11.604;2023-08-30T08:41:02;17.90;99.90
4052;DHT22;2040;50.924;11.604;2023-08-30T08:43:29;18.00;99.90
4052;DHT22;2040;50.924;11.604;2023-08-30T08:46:01;18.20;99.90
4052;DHT22;2040;50.924;11.604;2023-08-30T08:48:29;18.30;99.90
4052;DHT22;2040;50.924;11.604;2023-08-30T08:50:57;18.40;99.90
4052;DHT22;2040;50.924;11.604;2023-08-30T08:53:23;18.50;99.90
4052;DHT22;2040;50.924;11.604;2023-08-30T08:55:49;18.80;99.90
4052;DHT22;2040;50.924;11.604;2023-08-30T08:58:15;18.90;99.90
4052;DHT22;2040;50.924;11.604;2023-08-30T09:00:44;19.00;99.90
4052;DHT22;2040;50.924;11.604;2023-08-30T09:03:11;19.10;99.90
4052;DHT22;2040;50.924;11.604;2023-08-30T09:05:40;19.20;99.90
4052;DHT22;2040;50.924;11.604;2023-08-30T09:08:06;19.30;99.90
4052;DHT22;2040;50.924;11.604;2023-08-30T09:10:34;19.40;99.90
4052;DHT22;2040;50.924;11.604;2023-08-30T09:13:01;19.40;99.90
4052;DHT22;2040;50.924;11.604;2023-08-30T09:15:34;19.40;99.90
4052;DHT22;2040;50.924;11.604;2023-08-30T09:18:00;19.30;99.90
4052;DHT22;2040;50.924;11.604;2023-08-30T09:20:25;19.40;99.90
4052;DHT22;2040;50.924;11.604;2023-08-30T09:22:51;19.50;99.90
4052;DHT22;2040;50.924;11.604;2023-08-30T09:25:25;19.50;99.90
4052;DHT22;2040;50.924;11.604;2023-08-30T09:27:51;19.70;99.90
4052;DHT22;2040;50.924;11.604;2023-08-30T09:30:23;20.00;99.90
4052;DHT22;2040;50.924;11.604;2023-08-30T09:32:48;19.90;99.90
4052;DHT22;2040;50.924;11.604;2023-08-30T09:35:14;19.80;99.90
4052;DHT22;2040;50.924;11.604;2023-08-30T09:37:40;20.00;99.90
4052;DHT22;2040;50.924;11.604;2023-08-30T09:40:06;20.10;99.90
4052;DHT22;2040;50.924;11.604;2023-08-30T09:42:31;20.20;99.90
4052;DHT22;2040;50.924;11.604;2023-08-30T09:44:57;20.40;99.90
4052;DHT22;2040;50.924;11.604;2023-08-30T09:47:24;20.10;99.90
4052;DHT22;2040;50.924;11.604;2023-08-30T09:49:51;20.10;99.90
4052;DHT22;2040;50.924;11.604;2023-08-30T09:52:23;20.30;99.90
4052;DHT22;2040;50.924;11.604;2023-08-30T09:54:49;20.70;99.90
4052;DHT22;2040;50.924;11.604;2023-08-30T09:57:15;20.70;99.90
4052;DHT22;2040;50.924;11.604;2023-08-30T09:59:42;20.50;99.90
4052;DHT22;2040;50.924;11.604;2023-08-30T10:02:09;20.40;99.90
4052;DHT22;2040;50.924;11.604;2023-08-30T10:04:38;20.40;99.90
4052;DHT22;2040;50.924;11.604;2023-08-30T10:07:07;20.50;99.90
4052;DHT22;2040;50.924;11.604;2023-08-30T10:09:33;20.60;99.90
4052;DHT22;2040;50.924;11.604;2023-08-30T10:11:58;20.70;99.90
4052;DHT22;2040;50.924;11.604;2023-08-30T10:14:27;20.90;99.90
4052;DHT22;2040;50.924;11.604;2023-08-30T10:17:02;21.00;99.90
4052;DHT22;2040;50.924;11.604;2023-08-30T10:19:29;21.10;99.90
4052;DHT22;2040;50.924;11.604;2023-08-30T10:22:01;21.30;99.90
4052;DHT22;2040;50.924;11.604;2023-08-30T10:24:39;21.30;99.90
4052;DHT22;2040;50.924;11.604;2023-08-30T10:27:07;21.40;99.90
4052;DHT22;2040;50.924;11.604;2023-08-30T10:29:35;21.40;99.90
4052;DHT22;2040;50.924;11.604;2023-08-30T10:32:05;21.40;99.90
4052;DHT22;2040;50.924;11.604;2023-08-30T10:34:35;21.50;99.90
4052;DHT22;2040;50.924;11.604;2023-08-30T10:37:03;21.50;99.90
4052;DHT22;2040;50.924;11.604;2023-08-30T10:39:39;22.00;99.90
4052;DHT22;2040;50.924;11.604;2023-08-30T10:42:15;22.20;99.90
4052;DHT22;2040;50.924;11.604;2023-08-30T10:44:59;22.10;99.90
4052;DHT22;2040;50.924;11.604;2023-08-30T10:47:27;22.20;99.90
4052;DHT22;2040;50.924;11.604;2023-08-30T10:50:00;22.10;99.90
4052;DHT22;2040;50.924;11.604;2023-08-30T10:52:27;21.90;99.90
4052;DHT22;2040;50.924;11.604;2023-08-30T10:57:31;21.50;99.90
4052;DHT22;2040;50.924;11.604;2023-08-30T11:00:09;21.30;99.90
4052;DHT22;2040;50.924;11.604;2023-08-30T11:02:36;21.20;99.90
4052;DHT22;2040;50.924;11.604;2023-08-30T11:05:02;21.00;99.90
4052;DHT22;2040;50.924;11.604;2023-08-30T11:07:29;20.70;99.90
4052;DHT22;2040;50.924;11.604;2023-08-30T11:09:55;20.70;99.90
4052;DHT22;2040;50.924;11.604;2023-08-30T11:12:21;20.80;99.90
4052;DHT22;2040;50.924;11.604;2023-08-30T11:14:55;20.80;99.90
4052;DHT22;2040;50.924;11.604;2023-08-30T11:17:21;20.70;99.90
4052;DHT22;2040;50.924;11.604;2023-08-30T11:19:50;20.70;99.90
4052;DHT22;2040;50.924;11.604;2023-08-30T11:22:16;20.60;99.90
4052;DHT22;2040;50.924;11.604;2023-08-30T11:24:43;20.60;99.90
4052;DHT22;2040;50.924;11.604;2023-08-30T11:27:11;20.90;99.90
4052;DHT22;2040;50.924;11.604;2023-08-30T11:29:39;21.00;99.90
4052;DHT22;2040;50.924;11.604;2023-08-30T11:32:07;21.20;99.90
4052;DHT22;2040;50.924;11.604;2023-08-30T11:34:33;21.40;99.90
4052;DHT22;2040;50.924;11.604;2023-08-30T11:36:58;21.60;99.90
4052;DHT22;2040;50.924;11.604;2023-08-30T11:39:28;21.70;99.90
4052;DHT22;2040;50.924;11.604;2023-08-30T11:41:57;21.60;99.90
4052;DHT22;2040;50.924;11.604;2023-08-30T11:44:30;21.50;99.90
4052;DHT22;2040;50.924;11.604;2023-08-30T11:47:00;21.20;99.90
4052;DHT22;2040;50.924;11.604;2023-08-30T11:49:27;21.10;99.90
4052;DHT22;2040;50.924;11.604;2023-08-30T11:51:54;20.60;99.90
4052;DHT22;2040;50.924;11.604;2023-08-30T11:54:24;20.50;99.90
4052;DHT22;2040;50.924;11.604;2023-08-30T11:56:50;20.40;99.90
4052;DHT22;2040;50.924;11.604;2023-08-30T11:59:22;20.30;99.90
4052;DHT22;2040;50.924;11.604;2023-08-30T12:01:49;20.50;99.90
4052;DHT22;2040;50.924;11.604;2023-08-30T12:04:14;20.40;99.90
4052;DHT22;2040;50.924;11.604;2023-08-30T12:06:40;20.60;99.90
4052;DHT22;2040;50.924;11.604;2023-08-30T12:09:11;20.70;99.90
4052;DHT22;2040;50.924;11.604;2023-08-30T12:11:37;21.20;99.90
4052;DHT22;2040;50.924;11.604;2023-08-30T12:14:03;21.40;99.90
4052;DHT22;2040;50.924;11.604;2023-08-30T12:16:28;21.40;99.90
4052;DHT22;2040;50.924;11.604;2023-08-30T12:18:54;21.50;99.90
4052;DHT22;2040;50.924;11.604;2023-08-30T12:21:20;21.30;99.90
4052;DHT22;2040;50.924;11.604;2023-08-30T12:23:46;21.10;99.90
4052;DHT22;2040;50.924;11.604;2023-08-30T12:26:12;20.80;99.90
4052;DHT22;2040;50.924;11.604;2023-08-30T12:28:42;20.50;99.90
4052;DHT22;2040;50.924;11.604;2023-08-30T12:31:09;20.40;99.90
4052;DHT22;2040;50.924;11.604;2023-08-30T12:33:36;20.10;99.90
4052;DHT22;2040;50.924;11.604;2023-08-30T12:36:03;20.20;99.90
4052;DHT22;2040;50.924;11.604;2023-08-30T12:38:29;20.20;99.90
4052;DHT22;2040;50.924;11.604;2023-08-30T12:40:55;20.30;99.90
4052;DHT22;2040;50.924;11.604;2023-08-30T12:43:22;20.30;99.90
4052;DHT22;2040;50.924;11.604;2023-08-30T12:45:48;20.30;99.90
4052;DHT22;2040;50.924;11.604;2023-08-30T12:48:16;20.40;99.90
4052;DHT22;2040;50.924;11.604;2023-08-30T12:50:44;20.50;99.90
4052;DHT22;2040;50.924;11.604;2023-08-30T12:53:10;20.40;99.90
4052;DHT22;2040;50.924;11.604;2023-08-30T12:55:36;20.30;99.90
4052;DHT22;2040;50.924;11.604;2023-08-30T12:58:06;20.40;99.90
4052;DHT22;2040;50.924;11.604;2023-08-30T13:00:32;20.30;99.90
4052;DHT22;2040;50.924;11.604;2023-08-30T13:02:58;20.30;99.90
4052;DHT22;2040;50.924;11.604;2023-08-30T13:05:24;20.10;99.90
4052;DHT22;2040;50.924;11.604;2023-08-30T13:07:50;20.30;99.90
4052;DHT22;2040;50.924;11.604;2023-08-30T13:10:16;20.40;99.90
4052;DHT22;2040;50.924;11.604;2023-08-30T13:12:42;20.20;99.90
4052;DHT22;2040;50.924;11.604;2023-08-30T13:15:08;20.20;99.90
4052;DHT22;2040;50.924;11.604;2023-08-30T13:17:34;20.20;99.90
4052;DHT22;2040;50.924;11.604;2023-08-30T13:20:00;19.90;99.90
4052;DHT22;2040;50.924;11.604;2023-08-30T13:22:27;20.10;99.90
4052;DHT22;2040;50.924;11.604;2023-08-30T13:24:53;20.10;99.90
4052;DHT22;2040;50.924;11.604;2023-08-30T13:27:19;20.20;99.90
4052;DHT22;2040;50.924;11.604;2023-08-30T13:29:45;20.20;99.90
4052;DHT22;2040;50.924;11.604;2023-08-30T13:32:11;20.30;99.90
4052;DHT22;2040;50.924;11.604;2023-08-30T13:34:37;20.30;99.90
4052;DHT22;2040;50.924;11.604;2023-08-30T13:37:03;19.70;99.90
4052;DHT22;2040;50.924;11.604;2023-08-30T13:39:29;19.60;99.90
4052;DHT22;2040;50.924;11.604;2023-08-30T13:41:54;19.50;99.90
4052;DHT22;2040;50.924;11.604;2023-08-30T13:44:20;19.50;99.90
4052;DHT22;2040;50.924;11.604;2023-08-30T13:46:45;19.50;99.90
4052;DHT22;2040;50.924;11.604;2023-08-30T13:49:14;19.60;99.90
4052;DHT22;2040;50.924;11.604;2023-08-30T13:51:41;19.60;99.90
4052;DHT22;2040;50.924;11.604;2023-08-30T13:54:06;19.40;99.90
4052;DHT22;2040;50.924;11.604;2023-08-30T13:56:32;19.70;99.90
4052;DHT22;2040;50.924;11.604;2023-08-30T13:58:58;19.90;99.90
4052;DHT22;2040;50.924;11.604;2023-08-30T14:01:24;20.00;99.90
4052;DHT22;2040;50.924;11.604;2023-08-30T14:03:49;20.20;99.90
4052;DHT22;2040;50.924;11.604;2023-08-30T14:06:15;20.50;99.90
4052;DHT22;2040;50.924;11.604;2023-08-30T14:08:41;20.80;99.90
4052;DHT22;2040;50.924;11.604;2023-08-30T14:11:07;21.30;99.90
4052;DHT22;2040;50.924;11.604;2023-08-30T14:13:32;21.50;99.90
4052;DHT22;2040;50.924;11.604;2023-08-30T14:16:04;21.70;99.90
4052;DHT22;2040;50.924;11.604;2023-08-30T14:18:30;21.90;99.90
4052;DHT22;2040;50.924;11.604;2023-08-30T14:20:59;22.00;99.90
4052;DHT22;2040;50.924;11.604;2023-08-30T14:23:26;22.20;99.90
4052;DHT22;2040;50.924;11.604;2023-08-30T14:26:03;22.20;99.90
4052;DHT22;2040;50.924;11.604;2023-08-30T14:28:37;22.30;99.90
4052;DHT22;2040;50.924;11.604;2023-08-30T14:31:06;22.30;99.90
4052;DHT22;2040;50.924;11.604;2023-08-30T14:33:31;22.50;99.90
4052;DHT22;2040;50.924;11.604;2023-08-30T14:35:57;22.60;99.90
4052;DHT22;2040;50.924;11.604;2023-08-30T14:38:23;22.40;99.90
4052;DHT22;2040;50.924;11.604;2023-08-30T14:41:15;22.70;99.90
4052;DHT22;2040;50.924;11.604;2023-08-30T14:43:43;22.70;99.90
4052;DHT22;2040;50.924;11.604;2023-08-30T14:46:08;22.40;99.90
4052;DHT22;2040;50.924;11.604;2023-08-30T14:48:34;22.30;99.90
4052;DHT22;2040;50.924;11.604;2023-08-30T14:51:01;22.30;99.90
4052;DHT22;2040;50.924;11.604;2023-08-30T14:53:27;22.20;99.90
4052;DHT22;2040;50.924;11.604;2023-08-30T14:55:53;22.00;99.90
4052;DHT22;2040;50.924;11.604;2023-08-30T14:58:20;21.80;99.90
4052;DHT22;2040;50.924;11.604;2023-08-30T15:00:49;21.40;99.90
4052;DHT22;2040;50.924;11.604;2023-08-30T15:03:15;21.50;99.90
4052;DHT22;2040;50.924;11.604;2023-08-30T15:05:40;21.50;99.90
4052;DHT22;2040;50.924;11.604;2023-08-30T15:08:06;21.50;99.90
4052;DHT22;2040;50.924;11.604;2023-08-30T15:10:32;21.50;99.90
4052;DHT22;2040;50.924;11.604;2023-08-30T15:12:58;21.30;99.90
4052;DHT22;2040;50.924;11.604;2023-08-30T15:15:23;21.40;99.90
4052;DHT22;2040;50.924;11.604;2023-08-30T15:17:49;21.60;99.90
4052;DHT22;2040;50.924;11.604;2023-08-30T15:20:14;21.60;99.90
4052;DHT22;2040;50.924;11.604;2023-08-30T15:22:40;21.70;99.90
4052;DHT22;2040;50.924;11.604;2023-08-30T15:25:06;21.50;99.90
4052;DHT22;2040;50.924;11.604;2023-08-30T15:27:33;21.40;99.90
4052;DHT22;2040;50.924;11.604;2023-08-30T15:29:59;21.30;99.90
4052;DHT22;2040;50.924;11.604;2023-08-30T15:32:25;21.20;99.90
4052;DHT22;2040;50.924;11.604;2023-08-30T15:34:50;21.20;99.90
4052;DHT22;2040;50.924;11.604;2023-08-30T15:37:17;20.90;99.90
4052;DHT22;2040;50.924;11.604;2023-08-30T15:39:42;21.00;99.90
4052;DHT22;2040;50.924;11.604;2023-08-30T15:42:08;21.00;99.90
4052;DHT22;2040;50.924;11.604;2023-08-30T15:44:34;20.80;99.90